Terminal Aerodrome Forecast
Issued by NWS

Home | Current Version | Previous Version | Text Only | Print | Product List | Glossary On
Versions: 1 2 3 4 5 6 7 8 9 10 11 12 13 14 15 16 17 18
000
FTAK31 PAJN 182300
TAFAGY
TAF
PAGY 182322Z 1900/1924 VRB02KT P6SM -RA OVC060
     FM190200 VRB03KT 6SM -RA BR SCT020 OVC040
     FM190800 20008KT P6SM -RA SCT025 OVC050
     FM191500 21017KT P6SM -RA SCT030 OVC050
     FM191800 21028G42KT P6SM VCSH OVC060
      AMD LTD TO CLD VIS AND WIND=

USA.gov is the U.S. government's official web portal to all federal, state and local government web resources and services.